Terminal Aerodrome Forecast
Issued by NWS

Home | Current Version | Previous Version | Text Only | Print | Product List | Glossary On
Versions: 1 2 3 4 5 6 7 8 9 10 11 12 13 14 15 16 17 18
000
FTUS43 KLSX 251700
TAFUIN
TAF
KUIN 251731Z 2518/2618 27008KT P6SM OVC008
     FM252100 34008KT P6SM BKN010
     FM260000 36012KT P6SM -RA SCT015 OVC025
     FM260600 36012G20KT P6SM SCT050 OVC120
     FM261200 33014G22KT P6SM SKC=

USA.gov is the U.S. government's official web portal to all federal, state and local government web resources and services.